Time;durP1;ratioP1;P1;durP2;ratioP2;P2;SDS_P1;SDS_P2;PMS_P1;PMS_P2;Temp;Humidity;BMP_temperature;BMP_pressure;BME280_temperature;BME280_humidity;BME280_pressure;Samples;Min_cycle;Max_cycle;Signal;HPM_P1;HPM_P2
2023/07/25 00:01:04;;;;;;;7.15;3.10;;;;;;;;;;5081860;28;20611;-75
2023/07/25 00:03:30;;;;;;;8.40;3.15;;;;;;;;;;5085761;28;20047;-75
2023/07/25 00:05:56;;;;;;;6.95;3.55;;;;;;;;;;5094142;28;20122;-75
2023/07/25 00:08:22;;;;;;;8.65;3.80;;;;;;;;;;5086235;28;20046;-75
2023/07/25 00:10:48;;;;;;;7.03;3.17;;;;;;;;;;5087120;28;20044;-75
2023/07/25 00:13:15;;;;;;;9.35;3.40;;;;;;;;;;5081152;28;20044;-75
2023/07/25 00:15:41;;;;;;;10.98;3.45;;;;;;;;;;5088862;28;20062;-75
2023/07/25 00:18:07;;;;;;;8.80;3.60;;;;;;;;;;5089847;28;20032;-75
2023/07/25 00:20:33;;;;;;;8.50;3.47;;;;;;;;;;5087903;28;20360;-75
2023/07/25 00:22:59;;;;;;;7.63;3.20;;;;;;;;;;5092600;28;20165;-75
2023/07/25 00:25:25;;;;;;;8.75;3.22;;;;;;;;;;5093788;28;20040;-75
2023/07/25 00:27:51;;;;;;;6.70;3.38;;;;;;;;;;5086991;28;20036;-75
2023/07/25 00:30:17;;;;;;;9.80;3.28;;;;;;;;;;5088076;28;20123;-75
2023/07/25 00:32:43;;;;;;;10.15;3.60;;;;;;;;;;5093797;28;20055;-75
2023/07/25 00:35:10;;;;;;;9.95;3.70;;;;;;;;;;5093481;28;20051;-75
2023/07/25 00:37:36;;;;;;;7.18;3.20;;;;;;;;;;5093604;28;20052;-75
2023/07/25 00:40:02;;;;;;;8.02;3.38;;;;;;;;;;5091016;28;20098;-75
2023/07/25 00:42:28;;;;;;;8.27;3.38;;;;;;;;;;5086642;28;20032;-75
2023/07/25 00:44:55;;;;;;;9.07;3.78;;;;;;;;;;5094361;28;20436;-75
2023/07/25 00:47:22;;;;;;;12.15;3.60;;;;;;;;;;5098004;28;20040;-75
2023/07/25 00:49:49;;;;;;;9.82;3.45;;;;;;;;;;5093719;28;20197;-75
2023/07/25 00:52:15;;;;;;;12.07;3.60;;;;;;;;;;5092199;28;20096;-75
2023/07/25 00:54:46;;;;;;;8.50;3.28;;;;;;;;;;5080543;28;20057;-75
2023/07/25 00:57:13;;;;;;;7.45;3.83;;;;;;;;;;5078017;28;20120;-75
2023/07/25 00:59:39;;;;;;;10.75;3.85;;;;;;;;;;5082766;28;20048;-75
2023/07/25 01:02:05;;;;;;;11.57;3.53;;;;;;;;;;5087328;28;20045;-75
2023/07/25 01:04:31;;;;;;;8.13;3.22;;;;;;;;;;5089906;28;20044;-75
2023/07/25 01:06:58;;;;;;;14.05;3.42;;;;;;;;;;5092281;28;20382;-75
2023/07/25 01:09:37;;;;;;;10.10;4.22;;;;;;;;;;5087564;28;20487;-75
2023/07/25 01:12:05;;;;;;;11.57;3.47;;;;;;;;;;5079285;28;20351;-75
2023/07/25 01:14:34;;;;;;;8.07;3.53;;;;;;;;;;5093545;28;20040;-75
2023/07/25 01:17:03;;;;;;;6.68;3.10;;;;;;;;;;5093362;28;20047;-75
2023/07/25 01:19:30;;;;;;;7.25;3.38;;;;;;;;;;5080623;28;20032;-75
2023/07/25 01:21:57;;;;;;;12.68;3.65;;;;;;;;;;5091197;28;20496;-75
2023/07/25 01:24:23;;;;;;;12.50;3.55;;;;;;;;;;5093499;28;20105;-75
2023/07/25 01:26:49;;;;;;;9.90;4.03;;;;;;;;;;5090846;28;20123;-75
2023/07/25 01:29:15;;;;;;;9.32;3.30;;;;;;;;;;5084977;28;20052;-75
2023/07/25 01:31:41;;;;;;;10.02;3.83;;;;;;;;;;5080172;28;20036;-75
2023/07/25 01:34:07;;;;;;;7.30;3.33;;;;;;;;;;5083611;28;20046;-75
2023/07/25 01:36:34;;;;;;;8.52;3.80;;;;;;;;;;5089468;28;20059;-74
2023/07/25 01:39:00;;;;;;;12.07;3.72;;;;;;;;;;5095513;28;20524;-75
2023/07/25 01:41:26;;;;;;;12.30;3.75;;;;;;;;;;5091736;28;20044;-75
2023/07/25 01:43:52;;;;;;;10.45;3.80;;;;;;;;;;5089431;28;20123;-75
2023/07/25 01:46:18;;;;;;;7.03;4.28;;;;;;;;;;5082926;28;20075;-75
2023/07/25 01:48:44;;;;;;;9.13;4.03;;;;;;;;;;5093437;28;20211;-75
2023/07/25 01:51:10;;;;;;;12.27;3.97;;;;;;;;;;5083927;28;20108;-75
2023/07/25 01:53:36;;;;;;;8.75;3.05;;;;;;;;;;5085537;28;20040;-75
2023/07/25 01:56:02;;;;;;;6.72;2.72;;;;;;;;;;5085464;28;20052;-75
2023/07/25 01:58:28;;;;;;;7.50;3.33;;;;;;;;;;5093313;28;20372;-75
2023/07/25 02:01:00;;;;;;;5.50;3.03;;;;;;;;;;5078504;28;20105;-75
2023/07/25 02:03:27;;;;;;;9.65;3.33;;;;;;;;;;5089691;28;20051;-75
2023/07/25 02:05:53;;;;;;;6.47;2.42;;;;;;;;;;5090584;28;20513;-75
2023/07/25 02:08:19;;;;;;;6.63;2.65;;;;;;;;;;5081428;28;20112;-75
2023/07/25 02:10:45;;;;;;;9.23;3.17;;;;;;;;;;5080819;28;20044;-75
2023/07/25 02:13:11;;;;;;;4.40;2.88;;;;;;;;;;5083373;28;20131;-75
2023/07/25 02:15:38;;;;;;;7.35;3.13;;;;;;;;;;5091353;28;20039;-75
2023/07/25 02:18:04;;;;;;;7.35;3.05;;;;;;;;;;5093578;28;20055;-75
2023/07/25 02:20:31;;;;;;;10.85;2.92;;;;;;;;;;5095262;28;20036;-75
2023/07/25 02:22:57;;;;;;;9.18;3.28;;;;;;;;;;5087072;28;20045;-75
2023/07/25 02:25:25;;;;;;;8.48;2.80;;;;;;;;;;5089357;28;20478;-75
2023/07/25 02:27:51;;;;;;;7.53;3.30;;;;;;;;;;5087826;28;20036;-75
2023/07/25 02:30:17;;;;;;;9.93;2.90;;;;;;;;;;5090111;28;20067;-75
2023/07/25 02:32:43;;;;;;;7.55;2.80;;;;;;;;;;5088576;28;20115;-75
2023/07/25 02:35:09;;;;;;;8.18;3.28;;;;;;;;;;5083911;28;20037;-75
2023/07/25 02:37:36;;;;;;;6.70;3.08;;;;;;;;;;5073092;28;20052;-75
2023/07/25 02:40:02;;;;;;;5.65;3.15;;;;;;;;;;5087196;28;20440;-75
2023/07/25 02:42:28;;;;;;;5.70;2.90;;;;;;;;;;5088674;28;20047;-75
2023/07/25 02:44:54;;;;;;;6.20;2.55;;;;;;;;;;5091488;28;20052;-75
2023/07/25 02:47:20;;;;;;;4.78;2.75;;;;;;;;;;5082288;28;20040;-75
2023/07/25 02:49:46;;;;;;;7.65;2.70;;;;;;;;;;5094393;28;20512;-75
2023/07/25 02:52:12;;;;;;;7.18;3.00;;;;;;;;;;5091044;28;20040;-75
2023/07/25 02:54:38;;;;;;;5.22;2.60;;;;;;;;;;5089686;28;20449;-75
2023/07/25 02:57:05;;;;;;;7.45;2.90;;;;;;;;;;5095838;28;20079;-75
2023/07/25 02:59:31;;;;;;;6.32;2.95;;;;;;;;;;5094267;28;20497;-74
2023/07/25 03:01:57;;;;;;;7.45;3.00;;;;;;;;;;5090384;28;20044;-75
2023/07/25 03:04:23;;;;;;;6.60;2.83;;;;;;;;;;5087835;28;20096;-75
2023/07/25 03:06:49;;;;;;;8.25;3.30;;;;;;;;;;5084596;28;20052;-75
2023/07/25 03:09:15;;;;;;;7.10;2.60;;;;;;;;;;5079170;28;20127;-75
2023/07/25 03:11:41;;;;;;;7.57;3.05;;;;;;;;;;5087129;28;20393;-75
2023/07/25 03:14:07;;;;;;;6.70;2.70;;;;;;;;;;5067457;28;20131;-75
2023/07/25 03:16:33;;;;;;;6.45;2.95;;;;;;;;;;5092151;28;20036;-75
2023/07/25 03:18:59;;;;;;;9.82;3.03;;;;;;;;;;5088144;28;20040;-75
2023/07/25 03:21:25;;;;;;;6.32;2.97;;;;;;;;;;5082478;28;20071;-75
2023/07/25 03:23:51;;;;;;;8.45;2.88;;;;;;;;;;5090497;28;20444;-75
2023/07/25 03:26:18;;;;;;;7.15;2.75;;;;;;;;;;5080968;28;20058;-75
2023/07/25 03:28:44;;;;;;;7.93;3.03;;;;;;;;;;5076487;28;20047;-75
2023/07/25 03:31:10;;;;;;;8.38;3.08;;;;;;;;;;5086253;28;20040;-75
2023/07/25 03:33:37;;;;;;;6.05;2.88;;;;;;;;;;5080787;28;20445;-75
2023/07/25 03:36:03;;;;;;;7.10;2.78;;;;;;;;;;5085586;28;20083;-75
2023/07/25 03:38:29;;;;;;;8.45;2.70;;;;;;;;;;5089352;28;20047;-75
2023/07/25 03:40:55;;;;;;;6.93;2.97;;;;;;;;;;5093905;28;20121;-75
2023/07/25 03:43:21;;;;;;;7.60;2.83;;;;;;;;;;5099518;28;20450;-75
2023/07/25 03:45:47;;;;;;;8.45;2.97;;;;;;;;;;5084070;28;20052;-75
2023/07/25 03:48:14;;;;;;;5.95;3.10;;;;;;;;;;5088528;28;20047;-75
2023/07/25 03:50:40;;;;;;;5.53;2.78;;;;;;;;;;5067627;28;20403;-75
2023/07/25 03:53:06;;;;;;;6.85;3.08;;;;;;;;;;5092788;28;20493;-75
2023/07/25 03:55:32;;;;;;;10.15;3.53;;;;;;;;;;5085628;28;20036;-75
2023/07/25 03:57:58;;;;;;;7.63;3.13;;;;;;;;;;5091837;28;20118;-75
2023/07/25 04:00:24;;;;;;;6.78;3.05;;;;;;;;;;5089905;28;20082;-75
2023/07/25 04:02:50;;;;;;;7.40;3.10;;;;;;;;;;5090165;28;20464;-75
2023/07/25 04:05:17;;;;;;;5.47;2.80;;;;;;;;;;5101358;28;20402;-75
2023/07/25 04:07:43;;;;;;;7.60;3.30;;;;;;;;;;5095450;28;20040;-75
2023/07/25 04:10:09;;;;;;;6.45;3.05;;;;;;;;;;5093745;28;20204;-75
2023/07/25 04:12:35;;;;;;;6.28;2.60;;;;;;;;;;5092082;28;20040;-75
2023/07/25 04:15:01;;;;;;;6.50;2.92;;;;;;;;;;5096546;28;20051;-75
2023/07/25 04:17:27;;;;;;;6.47;2.88;;;;;;;;;;5078277;28;20052;-75
2023/07/25 04:19:53;;;;;;;7.88;3.08;;;;;;;;;;5087184;28;20033;-75
2023/07/25 04:22:19;;;;;;;5.82;2.85;;;;;;;;;;5083775;28;20066;-75
2023/07/25 04:24:45;;;;;;;10.50;3.47;;;;;;;;;;5080626;28;20040;-75
2023/07/25 04:27:12;;;;;;;9.27;3.25;;;;;;;;;;5087953;28;20048;-75
2023/07/25 04:29:38;;;;;;;11.75;3.65;;;;;;;;;;5070137;28;20086;-75
2023/07/25 04:32:04;;;;;;;5.80;2.92;;;;;;;;;;5087201;28;20050;-75
2023/07/25 04:34:30;;;;;;;12.32;3.75;;;;;;;;;;5086212;28;20085;-75
2023/07/25 04:36:56;;;;;;;6.63;2.88;;;;;;;;;;5083526;28;20044;-75
2023/07/25 04:39:22;;;;;;;8.57;3.25;;;;;;;;;;5079618;28;20086;-75
2023/07/25 04:41:48;;;;;;;7.95;2.70;;;;;;;;;;5086053;28;20035;-75
2023/07/25 04:44:14;;;;;;;5.43;2.65;;;;;;;;;;5094798;28;20051;-75
2023/07/25 04:46:40;;;;;;;8.05;2.70;;;;;;;;;;5092441;28;20040;-75
2023/07/25 04:49:11;;;;;;;6.50;3.00;;;;;;;;;;5092043;28;20048;-75
2023/07/25 04:51:37;;;;;;;4.63;2.50;;;;;;;;;;5093411;28;20059;-75
2023/07/25 04:54:03;;;;;;;6.20;2.92;;;;;;;;;;5090274;28;20040;-75
2023/07/25 04:56:29;;;;;;;4.78;2.22;;;;;;;;;;5095180;28;20043;-75
2023/07/25 04:58:55;;;;;;;5.70;2.45;;;;;;;;;;5093639;28;20071;-75
2023/07/25 05:01:21;;;;;;;6.57;2.30;;;;;;;;;;5085612;28;20105;-75
2023/07/25 05:03:47;;;;;;;5.78;2.60;;;;;;;;;;5090555;28;20156;-75
2023/07/25 05:06:13;;;;;;;16.45;2.72;;;;;;;;;;5088848;28;20048;-75
2023/07/25 05:08:39;;;;;;;4.90;2.50;;;;;;;;;;5094099;28;20036;-76
2023/07/25 05:11:06;;;;;;;8.50;2.20;;;;;;;;;;5077462;28;20075;-75
2023/07/25 05:13:32;;;;;;;5.95;2.30;;;;;;;;;;5078673;28;20040;-75
2023/07/25 05:15:58;;;;;;;3.67;2.00;;;;;;;;;;5087793;28;20072;-75
2023/07/25 05:18:24;;;;;;;5.18;2.00;;;;;;;;;;5091041;28;20083;-75
2023/07/25 05:20:50;;;;;;;3.90;1.98;;;;;;;;;;5089702;28;20117;-75
2023/07/25 05:23:16;;;;;;;5.05;2.10;;;;;;;;;;5079266;28;20098;-75
2023/07/25 05:25:43;;;;;;;5.80;1.95;;;;;;;;;;5089137;28;20040;-75
2023/07/25 05:28:09;;;;;;;5.10;1.83;;;;;;;;;;5092175;28;20059;-80
2023/07/25 05:30:35;;;;;;;6.35;1.95;;;;;;;;;;5088312;28;20127;-77
2023/07/25 05:33:01;;;;;;;6.53;2.05;;;;;;;;;;5092267;28;20570;-75
2023/07/25 05:35:27;;;;;;;6.13;2.15;;;;;;;;;;5081341;28;20048;-76
2023/07/25 05:37:53;;;;;;;3.10;2.05;;;;;;;;;;5082282;28;20084;-75
2023/07/25 05:40:19;;;;;;;3.83;1.73;;;;;;;;;;5081665;28;20044;-75
2023/07/25 05:42:46;;;;;;;6.60;1.85;;;;;;;;;;5081728;28;20502;-75
2023/07/25 05:45:13;;;;;;;3.83;2.20;;;;;;;;;;5078157;28;20087;-75
2023/07/25 05:47:39;;;;;;;12.77;1.88;;;;;;;;;;5088143;28;20044;-75
2023/07/25 05:50:06;;;;;;;2.92;1.80;;;;;;;;;;5091576;28;20461;-75
2023/07/25 05:52:33;;;;;;;3.85;1.50;;;;;;;;;;5074663;28;20130;-75
2023/07/25 05:54:59;;;;;;;4.78;2.10;;;;;;;;;;5081506;28;20170;-76
2023/07/25 05:57:25;;;;;;;5.53;1.83;;;;;;;;;;5078040;28;20045;-75
2023/07/25 05:59:51;;;;;;;2.88;1.63;;;;;;;;;;5092460;28;20036;-75
2023/07/25 06:02:17;;;;;;;4.30;1.70;;;;;;;;;;5092853;28;20044;-78
2023/07/25 06:04:46;;;;;;;4.85;1.95;;;;;;;;;;5085561;28;20498;-75
2023/07/25 06:07:13;;;;;;;2.95;1.63;;;;;;;;;;5086124;28;20058;-75
2023/07/25 06:09:39;;;;;;;3.92;1.55;;;;;;;;;;5092864;28;20119;-75
2023/07/25 06:12:05;;;;;;;4.97;1.90;;;;;;;;;;5090254;28;20102;-75
2023/07/25 06:14:31;;;;;;;7.95;1.95;;;;;;;;;;5092526;28;20398;-75
2023/07/25 06:16:57;;;;;;;6.15;1.90;;;;;;;;;;5090290;28;20119;-75
2023/07/25 06:19:23;;;;;;;4.20;1.80;;;;;;;;;;5088038;28;20110;-75
2023/07/25 06:21:50;;;;;;;4.80;1.60;;;;;;;;;;5084220;28;20051;-75
2023/07/25 06:24:16;;;;;;;6.55;1.60;;;;;;;;;;5096074;28;20040;-75
2023/07/25 06:26:43;;;;;;;3.75;1.67;;;;;;;;;;5092247;28;20040;-75
2023/07/25 06:29:09;;;;;;;2.17;1.35;;;;;;;;;;5094921;28;20040;-75
2023/07/25 06:31:36;;;;;;;3.67;1.60;;;;;;;;;;5096291;28;20093;-75
2023/07/25 06:34:02;;;;;;;5.63;1.60;;;;;;;;;;5095046;28;20074;-75
2023/07/25 06:36:28;;;;;;;3.45;1.70;;;;;;;;;;5096446;28;20482;-76
2023/07/25 06:38:54;;;;;;;3.72;1.60;;;;;;;;;;5080959;28;20048;-74
2023/07/25 06:41:20;;;;;;;3.60;1.85;;;;;;;;;;5091790;28;20039;-77
2023/07/25 06:43:46;;;;;;;3.63;1.60;;;;;;;;;;5095999;28;20036;-75
2023/07/25 06:46:12;;;;;;;3.55;1.55;;;;;;;;;;5096318;28;20101;-75
2023/07/25 06:48:38;;;;;;;5.28;1.88;;;;;;;;;;5096290;28;20158;-75
2023/07/25 06:51:05;;;;;;;5.65;2.13;;;;;;;;;;5094852;28;20050;-75
2023/07/25 06:53:31;;;;;;;3.70;1.67;;;;;;;;;;5090815;28;20450;-75
2023/07/25 06:55:57;;;;;;;2.90;1.40;;;;;;;;;;5094207;28;20044;-75
2023/07/25 06:58:23;;;;;;;4.85;1.50;;;;;;;;;;5094377;28;20090;-75
2023/07/25 07:00:49;;;;;;;4.47;1.88;;;;;;;;;;5086875;28;20044;-75
2023/07/25 07:03:15;;;;;;;4.95;1.80;;;;;;;;;;5093156;28;20119;-75
2023/07/25 07:05:41;;;;;;;6.20;2.08;;;;;;;;;;5094036;28;20048;-75
2023/07/25 07:08:07;;;;;;;3.45;1.67;;;;;;;;;;5081893;28;20044;-75
2023/07/25 07:10:33;;;;;;;4.20;1.90;;;;;;;;;;5091949;28;20094;-75
2023/07/25 07:13:00;;;;;;;8.25;1.80;;;;;;;;;;5095382;28;20058;-77
2023/07/25 07:15:26;;;;;;;3.88;1.75;;;;;;;;;;5095384;28;20052;-76
2023/07/25 07:17:52;;;;;;;3.08;1.67;;;;;;;;;;5084957;28;20072;-76
2023/07/25 07:20:19;;;;;;;5.55;1.80;;;;;;;;;;5088354;28;20180;-76
2023/07/25 07:22:45;;;;;;;5.57;1.60;;;;;;;;;;5093160;28;20036;-76
2023/07/25 07:25:11;;;;;;;6.00;2.13;;;;;;;;;;5094796;28;20501;-76
2023/07/25 07:27:37;;;;;;;2.92;1.80;;;;;;;;;;5088378;28;20041;-75
2023/07/25 07:30:03;;;;;;;3.47;1.70;;;;;;;;;;5079516;28;20325;-75
2023/07/25 07:32:29;;;;;;;6.63;1.80;;;;;;;;;;5086914;28;20086;-75
2023/07/25 07:34:55;;;;;;;3.45;1.70;;;;;;;;;;5098974;28;20134;-75
2023/07/25 07:37:22;;;;;;;6.43;1.60;;;;;;;;;;5093773;28;20044;-77
2023/07/25 07:39:48;;;;;;;4.28;1.80;;;;;;;;;;5097856;28;20072;-75
2023/07/25 07:42:14;;;;;;;3.13;1.60;;;;;;;;;;5052421;28;20084;-76
2023/07/25 07:44:40;;;;;;;3.40;1.80;;;;;;;;;;5039888;28;20418;-76
2023/07/25 07:47:06;;;;;;;4.78;1.83;;;;;;;;;;5044501;28;20471;-76
2023/07/25 07:49:33;;;;;;;3.40;1.70;;;;;;;;;;5051714;28;20037;-76
2023/07/25 07:51:59;;;;;;;2.75;1.70;;;;;;;;;;5054675;28;20048;-76
2023/07/25 07:54:25;;;;;;;5.40;2.13;;;;;;;;;;5054544;28;20141;-76
2023/07/25 07:56:51;;;;;;;9.80;2.20;;;;;;;;;;5054068;28;20060;-76
2023/07/25 07:59:18;;;;;;;4.05;2.05;;;;;;;;;;5061686;28;20463;-76
2023/07/25 08:01:44;;;;;;;3.45;2.40;;;;;;;;;;5048974;28;20045;-76
2023/07/25 08:04:11;;;;;;;4.75;1.95;;;;;;;;;;5056030;28;20115;-75
2023/07/25 08:06:37;;;;;;;3.25;1.80;;;;;;;;;;5050390;28;20048;-75
2023/07/25 08:09:04;;;;;;;4.72;1.60;;;;;;;;;;5057902;28;20036;-75
2023/07/25 08:11:30;;;;;;;4.05;1.80;;;;;;;;;;5050203;28;20159;-75
2023/07/25 08:13:56;;;;;;;5.10;2.08;;;;;;;;;;5049257;28;20080;-75
2023/07/25 08:16:22;;;;;;;4.50;2.13;;;;;;;;;;5050882;28;20438;-76
2023/07/25 08:18:48;;;;;;;6.88;1.90;;;;;;;;;;5053378;28;20063;-75
2023/07/25 08:21:14;;;;;;;5.00;1.95;;;;;;;;;;5053664;28;20041;-75
2023/07/25 08:23:41;;;;;;;6.35;2.22;;;;;;;;;;5060224;28;20045;-75
2023/07/25 08:26:07;;;;;;;3.70;2.03;;;;;;;;;;5037480;28;20043;-76
2023/07/25 08:28:33;;;;;;;4.32;2.00;;;;;;;;;;5041200;28;20872;-76
2023/07/25 08:31:04;;;;;;;6.80;2.00;;;;;;;;;;5046169;28;20046;-76
2023/07/25 08:33:37;;;;;;;4.15;2.28;;;;;;;;;;5052249;28;20059;-76
2023/07/25 08:36:03;;;;;;;5.30;2.38;;;;;;;;;;5033445;28;20089;-76
2023/07/25 08:38:29;;;;;;;4.78;1.88;;;;;;;;;;5044899;28;20047;-76
2023/07/25 08:41:05;;;;;;;6.28;2.30;;;;;;;;;;5050880;28;20037;-79
2023/07/25 08:43:35;;;;;;;4.93;1.80;;;;;;;;;;5038883;28;20048;-76
2023/07/25 08:46:03;;;;;;;4.35;2.10;;;;;;;;;;5051690;28;20099;-76
2023/07/25 08:48:30;;;;;;;6.32;2.30;;;;;;;;;;5051474;28;20044;-76
2023/07/25 08:50:57;;;;;;;11.90;2.53;;;;;;;;;;5050743;28;20052;-76
2023/07/25 08:53:24;;;;;;;8.07;2.00;;;;;;;;;;5045709;28;20454;-76
2023/07/25 08:55:51;;;;;;;6.30;2.15;;;;;;;;;;5050016;28;20079;-76
2023/07/25 08:58:17;;;;;;;4.28;1.98;;;;;;;;;;5048549;28;20071;-76
2023/07/25 09:00:44;;;;;;;2.47;1.27;;;;;;;;;;5050176;28;20110;-76
2023/07/25 09:03:10;;;;;;;2.63;1.50;;;;;;;;;;5049349;28;20112;-76
2023/07/25 09:05:37;;;;;;;4.88;1.88;;;;;;;;;;5053563;28;20041;-76
2023/07/25 09:08:03;;;;;;;4.53;1.80;;;;;;;;;;5052590;28;20077;-76
2023/07/25 09:10:29;;;;;;;2.80;1.85;;;;;;;;;;5039857;28;20052;-76
2023/07/25 09:12:56;;;;;;;4.03;2.00;;;;;;;;;;5050558;28;20114;-76
2023/07/25 09:15:22;;;;;;;3.55;1.85;;;;;;;;;;5043124;28;20389;-76
2023/07/25 09:17:49;;;;;;;3.47;1.70;;;;;;;;;;5051089;28;20060;-75
2023/07/25 09:20:15;;;;;;;3.38;1.80;;;;;;;;;;5041992;28;20091;-76
2023/07/25 09:22:46;;;;;;;4.82;2.08;;;;;;;;;;5049897;28;20037;-76
2023/07/25 09:25:14;;;;;;;5.15;1.80;;;;;;;;;;5039991;28;20059;-76
2023/07/25 09:27:40;;;;;;;3.05;1.92;;;;;;;;;;5037750;28;20145;-76
2023/07/25 09:30:12;;;;;;;4.80;1.80;;;;;;;;;;5042941;28;20076;-76
2023/07/25 09:32:39;;;;;;;5.10;1.88;;;;;;;;;;5041650;28;20052;-76
2023/07/25 09:35:06;;;;;;;7.47;2.20;;;;;;;;;;5050035;28;20123;-76
2023/07/25 09:37:32;;;;;;;6.05;2.03;;;;;;;;;;5053016;28;20060;-76
2023/07/25 09:39:58;;;;;;;4.28;1.85;;;;;;;;;;5047189;28;20411;-76
2023/07/25 09:42:25;;;;;;;4.13;1.92;;;;;;;;;;5049948;28;20045;-76
2023/07/25 09:44:52;;;;;;;4.97;1.98;;;;;;;;;;5038685;28;20411;-76
2023/07/25 09:47:23;;;;;;;4.45;1.77;;;;;;;;;;5041856;28;20132;-76
2023/07/25 09:49:49;;;;;;;4.38;1.90;;;;;;;;;;5041708;28;20506;-76
2023/07/25 09:52:16;;;;;;;4.88;2.10;;;;;;;;;;5045307;28;20080;-76
2023/07/25 09:54:42;;;;;;;5.50;1.80;;;;;;;;;;5046661;28;20467;-76
2023/07/25 09:57:08;;;;;;;4.45;1.70;;;;;;;;;;5055348;28;20076;-76
2023/07/25 09:59:35;;;;;;;3.42;1.50;;;;;;;;;;5051934;28;20094;-76
2023/07/25 10:02:01;;;;;;;4.05;1.67;;;;;;;;;;5048376;28;20037;-76
2023/07/25 10:04:28;;;;;;;5.25;1.90;;;;;;;;;;5054563;28;20037;-76
2023/07/25 10:06:54;;;;;;;4.13;1.80;;;;;;;;;;5051018;28;20045;-76
2023/07/25 10:09:20;;;;;;;3.60;1.92;;;;;;;;;;5050919;28;20175;-79
2023/07/25 10:11:50;;;;;;;4.05;1.75;;;;;;;;;;5047245;28;20517;-75
2023/07/25 10:14:16;;;;;;;3.60;1.60;;;;;;;;;;5055520;28;20051;-76
2023/07/25 10:16:43;;;;;;;5.05;1.65;;;;;;;;;;5054676;28;20041;-76
2023/07/25 10:19:09;;;;;;;3.42;1.50;;;;;;;;;;5051349;28;20033;-75
2023/07/25 10:21:51;;;;;;;4.40;2.08;;;;;;;;;;5055285;28;20041;-75
2023/07/25 10:24:18;;;;;;;3.88;1.70;;;;;;;;;;5040611;28;20380;-76
2023/07/25 10:26:57;;;;;;;3.95;1.48;;;;;;;;;;5054697;28;20041;-76
2023/07/25 10:29:36;;;;;;;4.25;1.75;;;;;;;;;;5054257;28;20037;-76
2023/07/25 10:32:03;;;;;;;2.63;1.45;;;;;;;;;;5044915;28;20050;-76
2023/07/25 10:34:43;;;;;;;2.97;1.95;;;;;;;;;;5050435;28;20041;-76
2023/07/25 10:37:20;;;;;;;6.03;1.85;;;;;;;;;;5052880;28;20130;-76
2023/07/25 10:39:46;;;;;;;5.45;2.05;;;;;;;;;;5052251;28;20044;-76
2023/07/25 10:42:16;;;;;;;5.00;1.85;;;;;;;;;;5054950;28;20536;-76
2023/07/25 10:44:42;;;;;;;4.60;1.80;;;;;;;;;;5050248;28;20123;-76
2023/07/25 10:47:26;;;;;;;4.22;1.70;;;;;;;;;;5043891;28;20095;-76
2023/07/25 10:49:55;;;;;;;3.45;1.70;;;;;;;;;;5052938;28;20191;-78
2023/07/25 10:52:40;;;;;;;3.67;1.67;;;;;;;;;;5048020;28;20041;-76
2023/07/25 10:55:07;;;;;;;3.75;1.70;;;;;;;;;;5055497;28;20056;-76
2023/07/25 10:57:33;;;;;;;4.75;1.65;;;;;;;;;;5053867;28;20045;-76
2023/07/25 11:00:08;;;;;;;3.17;1.52;;;;;;;;;;5049560;28;20144;-75
2023/07/25 11:02:34;;;;;;;2.95;1.70;;;;;;;;;;5054651;28;20116;-76
2023/07/25 11:05:12;;;;;;;2.05;1.20;;;;;;;;;;5059422;28;20048;-76
2023/07/25 11:07:39;;;;;;;2.85;1.67;;;;;;;;;;5046792;28;20038;-76
2023/07/25 11:10:05;;;;;;;2.92;1.48;;;;;;;;;;5037504;28;20502;-76
2023/07/25 11:12:32;;;;;;;3.25;1.60;;;;;;;;;;5051437;28;20111;-76
2023/07/25 11:14:58;;;;;;;5.68;1.75;;;;;;;;;;5047369;28;20042;-77
2023/07/25 11:17:28;;;;;;;7.68;2.00;;;;;;;;;;5034947;28;20053;-76
2023/07/25 11:19:54;;;;;;;5.03;1.65;;;;;;;;;;5047099;28;20101;-76
2023/07/25 11:22:20;;;;;;;9.02;2.20;;;;;;;;;;5053398;28;20048;-76
2023/07/25 11:24:49;;;;;;;3.10;1.52;;;;;;;;;;5053795;28;20048;-76
2023/07/25 11:27:15;;;;;;;5.75;1.85;;;;;;;;;;5050713;28;20083;-76
2023/07/25 11:29:41;;;;;;;4.95;2.00;;;;;;;;;;5055042;28;20090;-76
2023/07/25 11:32:08;;;;;;;3.88;1.95;;;;;;;;;;5053998;28;20053;-76
2023/07/25 11:34:34;;;;;;;4.88;2.00;;;;;;;;;;5036321;28;20049;-76
2023/07/25 11:37:00;;;;;;;5.20;1.80;;;;;;;;;;5049505;28;20056;-76
2023/07/25 11:39:27;;;;;;;5.13;1.98;;;;;;;;;;5045182;28;20045;-76
2023/07/25 11:41:54;;;;;;;4.35;1.67;;;;;;;;;;5048989;28;20574;-76
2023/07/25 11:44:20;;;;;;;6.85;2.15;;;;;;;;;;5052056;28;20098;-76
2023/07/25 11:46:51;;;;;;;3.92;1.90;;;;;;;;;;5031918;28;20064;-76
2023/07/25 11:49:17;;;;;;;2.65;1.80;;;;;;;;;;5033490;28;20053;-76
2023/07/25 11:51:44;;;;;;;2.20;1.70;;;;;;;;;;5049292;28;20044;-76
2023/07/25 11:54:10;;;;;;;11.57;1.98;;;;;;;;;;5047539;28;20124;-76
2023/07/25 11:56:37;;;;;;;3.58;1.73;;;;;;;;;;5038173;28;20041;-76
2023/07/25 11:59:03;;;;;;;4.35;1.80;;;;;;;;;;5051602;28;20048;-76
2023/07/25 12:01:33;;;;;;;3.35;1.90;;;;;;;;;;5050212;28;20388;-76
2023/07/25 12:04:03;;;;;;;4.20;2.30;;;;;;;;;;5052813;28;20055;-76
2023/07/25 12:06:31;;;;;;;3.67;1.73;;;;;;;;;;5054351;28;20044;-76
2023/07/25 12:08:57;;;;;;;3.95;1.58;;;;;;;;;;5054574;28;20041;-76
2023/07/25 12:11:23;;;;;;;4.28;1.80;;;;;;;;;;5047724;28;20048;-76
2023/07/25 12:13:50;;;;;;;3.72;1.55;;;;;;;;;;5053011;28;20056;-76
2023/07/25 12:16:34;;;;;;;3.00;1.77;;;;;;;;;;5052323;28;20055;-76
2023/07/25 12:19:05;;;;;;;3.42;1.70;;;;;;;;;;5053898;28;20052;-75
2023/07/25 12:21:33;;;;;;;2.78;1.33;;;;;;;;;;5051571;28;20091;-76
2023/07/25 12:24:00;;;;;;;4.03;1.80;;;;;;;;;;5049094;28;20041;-76
2023/07/25 12:26:27;;;;;;;3.60;1.77;;;;;;;;;;5053676;28;20128;-76
2023/07/25 12:28:53;;;;;;;3.47;1.92;;;;;;;;;;5041918;28;20466;-76
2023/07/25 12:31:19;;;;;;;2.47;1.60;;;;;;;;;;5049398;28;20402;-76
2023/07/25 12:33:47;;;;;;;2.10;1.60;;;;;;;;;;5052689;28;20075;-76
2023/07/25 12:36:14;;;;;;;3.22;1.90;;;;;;;;;;5053749;28;20106;-76
2023/07/25 12:38:41;;;;;;;3.60;1.60;;;;;;;;;;5054799;28;20047;-76
2023/07/25 12:41:07;;;;;;;1.73;1.48;;;;;;;;;;5054501;28;20049;-75
2023/07/25 12:43:33;;;;;;;2.65;1.67;;;;;;;;;;5049954;28;20044;-81
2023/07/25 12:46:00;;;;;;;3.63;1.40;;;;;;;;;;5052060;28;20045;-76
2023/07/25 12:48:26;;;;;;;2.85;1.80;;;;;;;;;;5046426;28;20678;-76
2023/07/25 12:50:52;;;;;;;5.55;1.80;;;;;;;;;;5053387;28;20061;-76
2023/07/25 12:53:18;;;;;;;2.55;1.73;;;;;;;;;;5053453;28;20056;-76
2023/07/25 12:55:44;;;;;;;3.30;1.60;;;;;;;;;;5051301;28;20191;-76
2023/07/25 12:58:10;;;;;;;2.75;1.40;;;;;;;;;;5042442;28;20106;-76
2023/07/25 13:00:37;;;;;;;1.65;1.40;;;;;;;;;;5051939;28;20047;-76
2023/07/25 13:03:03;;;;;;;5.95;1.92;;;;;;;;;;5047475;28;20041;-76
2023/07/25 13:05:29;;;;;;;2.20;1.70;;;;;;;;;;5045484;28;20047;-76
2023/07/25 13:07:56;;;;;;;4.60;1.63;;;;;;;;;;5050753;28;20083;-75
2023/07/25 13:10:22;;;;;;;3.75;1.80;;;;;;;;;;5033701;28;20052;-75
2023/07/25 13:12:48;;;;;;;3.22;2.00;;;;;;;;;;5037636;28;20048;-75
2023/07/25 13:15:14;;;;;;;3.15;2.08;;;;;;;;;;5046751;28;20076;-75
2023/07/25 13:17:40;;;;;;;2.53;1.60;;;;;;;;;;5040019;28;20040;-75
2023/07/25 13:20:07;;;;;;;4.72;2.00;;;;;;;;;;5049729;28;20182;-75
2023/07/25 13:22:33;;;;;;;3.85;1.60;;;;;;;;;;5052234;28;20122;-75
2023/07/25 13:24:59;;;;;;;2.78;1.73;;;;;;;;;;5053186;28;20468;-75
2023/07/25 13:27:26;;;;;;;3.55;1.83;;;;;;;;;;5051152;28;20118;-76
2023/07/25 13:29:52;;;;;;;3.88;1.65;;;;;;;;;;5041482;28;20060;-76
2023/07/25 13:32:18;;;;;;;3.38;2.13;;;;;;;;;;5048455;28;20037;-75
2023/07/25 13:34:45;;;;;;;4.53;1.83;;;;;;;;;;5047552;28;20107;-75
2023/07/25 13:37:11;;;;;;;3.55;1.77;;;;;;;;;;5053273;28;20144;-75
2023/07/25 13:39:37;;;;;;;5.43;1.95;;;;;;;;;;5055074;28;20144;-75
2023/07/25 13:42:03;;;;;;;6.43;2.10;;;;;;;;;;5053913;28;20064;-75
2023/07/25 13:44:29;;;;;;;4.63;1.90;;;;;;;;;;5053809;28;20083;-75
2023/07/25 13:46:55;;;;;;;4.85;1.95;;;;;;;;;;5043476;28;20048;-75
2023/07/25 13:49:21;;;;;;;3.40;1.80;;;;;;;;;;5057019;28;20095;-76
2023/07/25 13:51:47;;;;;;;5.28;2.03;;;;;;;;;;5053352;28;20060;-75
2023/07/25 13:54:14;;;;;;;7.03;1.90;;;;;;;;;;5049973;28;20056;-75
2023/07/25 13:56:42;;;;;;;5.20;1.98;;;;;;;;;;5038525;28;20046;-77
2023/07/25 13:59:08;;;;;;;5.65;2.08;;;;;;;;;;5051420;28;20053;-75
2023/07/25 14:01:34;;;;;;;3.28;2.00;;;;;;;;;;5056475;28;20391;-75
2023/07/25 14:04:00;;;;;;;3.95;2.00;;;;;;;;;;5057059;28;20051;-75
2023/07/25 14:06:26;;;;;;;4.22;1.98;;;;;;;;;;5043095;28;20558;-75
2023/07/25 14:08:53;;;;;;;4.75;2.25;;;;;;;;;;5057668;28;20045;-80
2023/07/25 14:11:20;;;;;;;4.05;1.73;;;;;;;;;;5040201;28;20087;-75
2023/07/25 14:13:46;;;;;;;10.35;2.10;;;;;;;;;;5055237;28;20453;-76
2023/07/25 14:16:13;;;;;;;3.92;1.80;;;;;;;;;;5041023;28;20114;-75
2023/07/25 14:18:39;;;;;;;5.82;1.83;;;;;;;;;;5044512;28;20038;-75
2023/07/25 14:21:06;;;;;;;7.40;2.30;;;;;;;;;;5041173;28;20051;-75
2023/07/25 14:23:32;;;;;;;5.00;1.92;;;;;;;;;;5056576;28;20041;-76
2023/07/25 14:25:58;;;;;;;5.15;2.03;;;;;;;;;;5055522;28;20041;-75
2023/07/25 14:28:24;;;;;;;3.63;1.80;;;;;;;;;;5051803;28;20059;-75
2023/07/25 14:30:50;;;;;;;5.65;1.88;;;;;;;;;;5043918;28;20098;-75
2023/07/25 14:33:20;;;;;;;5.40;2.20;;;;;;;;;;5056070;28;20045;-75
2023/07/25 14:35:46;;;;;;;4.55;1.90;;;;;;;;;;5049203;28;20427;-74
2023/07/25 14:38:12;;;;;;;4.10;1.90;;;;;;;;;;5053716;28;20041;-75
2023/07/25 14:40:38;;;;;;;5.82;1.77;;;;;;;;;;5055724;28;20045;-74